sensor_id;sensor_type;location;lat;lon;timestamp;temperature;humidity
25346;DHT22;13300;51.032;3.710;2023-03-15T00:01:45;6.00;99.90
25346;DHT22;13300;51.032;3.710;2023-03-15T00:04:12;6.00;99.90
25346;DHT22;13300;51.032;3.710;2023-03-15T00:06:37;5.90;99.90
25346;DHT22;13300;51.032;3.710;2023-03-15T00:09:03;5.90;99.90
25346;DHT22;13300;51.032;3.710;2023-03-15T00:11:29;5.90;99.90
25346;DHT22;13300;51.032;3.710;2023-03-15T00:13:56;5.90;99.90
25346;DHT22;13300;51.032;3.710;2023-03-15T00:16:22;6.00;99.90
25346;DHT22;13300;51.032;3.710;2023-03-15T00:18:52;6.10;99.90
25346;DHT22;13300;51.032;3.710;2023-03-15T00:21:18;6.10;99.90
25346;DHT22;13300;51.032;3.710;2023-03-15T00:23:44;6.20;99.90
25346;DHT22;13300;51.032;3.710;2023-03-15T00:26:10;6.30;99.90
25346;DHT22;13300;51.032;3.710;2023-03-15T00:28:35;6.30;99.90
25346;DHT22;13300;51.032;3.710;2023-03-15T00:31:07;6.30;99.90
25346;DHT22;13300;51.032;3.710;2023-03-15T00:33:36;6.30;99.90
25346;DHT22;13300;51.032;3.710;2023-03-15T00:36:04;6.40;99.90
25346;DHT22;13300;51.032;3.710;2023-03-15T00:38:30;6.50;99.90
25346;DHT22;13300;51.032;3.710;2023-03-15T00:40:56;6.50;99.90
25346;DHT22;13300;51.032;3.710;2023-03-15T00:43:22;6.60;99.90
25346;DHT22;13300;51.032;3.710;2023-03-15T00:45:47;6.70;99.90
25346;DHT22;13300;51.032;3.710;2023-03-15T00:48:13;6.70;99.90
25346;DHT22;13300;51.032;3.710;2023-03-15T00:50:39;6.70;99.90
25346;DHT22;13300;51.032;3.710;2023-03-15T00:53:05;6.60;99.90
25346;DHT22;13300;51.032;3.710;2023-03-15T00:55:30;6.70;99.90
25346;DHT22;13300;51.032;3.710;2023-03-15T00:57:56;6.70;99.90
25346;DHT22;13300;51.032;3.710;2023-03-15T01:00:22;6.50;99.90
25346;DHT22;13300;51.032;3.710;2023-03-15T01:02:54;6.50;99.90
25346;DHT22;13300;51.032;3.710;2023-03-15T01:05:20;6.60;99.90
25346;DHT22;13300;51.032;3.710;2023-03-15T01:07:46;6.60;99.90
25346;DHT22;13300;51.032;3.710;2023-03-15T01:10:13;6.70;99.90
25346;DHT22;13300;51.032;3.710;2023-03-15T01:12:40;6.70;99.90
25346;DHT22;13300;51.032;3.710;2023-03-15T01:15:07;6.80;99.90
25346;DHT22;13300;51.032;3.710;2023-03-15T01:17:33;6.80;99.90
25346;DHT22;13300;51.032;3.710;2023-03-15T01:19:59;6.80;99.90
25346;DHT22;13300;51.032;3.710;2023-03-15T01:22:25;6.80;99.90
25346;DHT22;13300;51.032;3.710;2023-03-15T01:24:51;6.80;99.90
25346;DHT22;13300;51.032;3.710;2023-03-15T01:27:17;6.80;99.90
25346;DHT22;13300;51.032;3.710;2023-03-15T01:29:43;6.80;99.90
25346;DHT22;13300;51.032;3.710;2023-03-15T01:32:08;6.80;99.90
25346;DHT22;13300;51.032;3.710;2023-03-15T01:34:35;6.70;99.90
25346;DHT22;13300;51.032;3.710;2023-03-15T01:37:01;6.70;99.90
25346;DHT22;13300;51.032;3.710;2023-03-15T01:39:28;6.70;99.90
25346;DHT22;13300;51.032;3.710;2023-03-15T01:41:54;6.70;99.90
25346;DHT22;13300;51.032;3.710;2023-03-15T01:44:20;6.90;99.90
25346;DHT22;13300;51.032;3.710;2023-03-15T01:46:46;6.90;99.90
25346;DHT22;13300;51.032;3.710;2023-03-15T01:49:26;6.80;99.90
25346;DHT22;13300;51.032;3.710;2023-03-15T01:52:16;6.80;99.90
25346;DHT22;13300;51.032;3.710;2023-03-15T01:54:50;6.80;99.90
25346;DHT22;13300;51.032;3.710;2023-03-15T01:57:23;6.90;99.90
25346;DHT22;13300;51.032;3.710;2023-03-15T02:00:02;6.80;99.90
25346;DHT22;13300;51.032;3.710;2023-03-15T02:02:32;6.80;99.90
25346;DHT22;13300;51.032;3.710;2023-03-15T02:05:02;6.70;99.90
25346;DHT22;13300;51.032;3.710;2023-03-15T02:07:31;6.70;99.90
25346;DHT22;13300;51.032;3.710;2023-03-15T02:10:14;6.70;99.90
25346;DHT22;13300;51.032;3.710;2023-03-15T02:12:46;6.50;99.90
25346;DHT22;13300;51.032;3.710;2023-03-15T02:15:14;6.40;99.90
25346;DHT22;13300;51.032;3.710;2023-03-15T02:17:45;6.40;99.90
25346;DHT22;13300;51.032;3.710;2023-03-15T02:22:51;6.40;99.90
25346;DHT22;13300;51.032;3.710;2023-03-15T02:28:12;6.20;99.90
25346;DHT22;13300;51.032;3.710;2023-03-15T02:30:39;6.20;99.90
25346;DHT22;13300;51.032;3.710;2023-03-15T02:33:10;6.20;99.90
25346;DHT22;13300;51.032;3.710;2023-03-15T02:35:37;6.20;99.90
25346;DHT22;13300;51.032;3.710;2023-03-15T02:38:03;6.20;99.90
25346;DHT22;13300;51.032;3.710;2023-03-15T02:40:29;6.40;99.90
25346;DHT22;13300;51.032;3.710;2023-03-15T02:42:59;6.40;99.90
25346;DHT22;13300;51.032;3.710;2023-03-15T02:45:28;6.40;99.90
25346;DHT22;13300;51.032;3.710;2023-03-15T02:47:56;6.40;99.90
25346;DHT22;13300;51.032;3.710;2023-03-15T02:50:22;6.30;99.90
25346;DHT22;13300;51.032;3.710;2023-03-15T02:52:48;6.40;99.90
25346;DHT22;13300;51.032;3.710;2023-03-15T02:55:14;6.40;99.90
25346;DHT22;13300;51.032;3.710;2023-03-15T02:57:39;6.50;99.90
25346;DHT22;13300;51.032;3.710;2023-03-15T03:00:06;6.60;99.90
25346;DHT22;13300;51.032;3.710;2023-03-15T03:02:43;6.60;99.90
25346;DHT22;13300;51.032;3.710;2023-03-15T03:05:11;6.60;99.90
25346;DHT22;13300;51.032;3.710;2023-03-15T03:07:38;6.70;99.90
25346;DHT22;13300;51.032;3.710;2023-03-15T03:10:05;6.70;99.90
25346;DHT22;13300;51.032;3.710;2023-03-15T03:12:31;6.60;99.90
25346;DHT22;13300;51.032;3.710;2023-03-15T03:14:57;6.50;99.90
25346;DHT22;13300;51.032;3.710;2023-03-15T03:17:23;6.60;99.90
25346;DHT22;13300;51.032;3.710;2023-03-15T03:19:49;6.60;99.90
25346;DHT22;13300;51.032;3.710;2023-03-15T03:22:16;6.60;99.90
25346;DHT22;13300;51.032;3.710;2023-03-15T03:24:42;6.60;99.90
25346;DHT22;13300;51.032;3.710;2023-03-15T03:27:11;6.60;99.90
25346;DHT22;13300;51.032;3.710;2023-03-15T03:29:39;6.60;99.90
25346;DHT22;13300;51.032;3.710;2023-03-15T03:32:06;6.50;99.90
25346;DHT22;13300;51.032;3.710;2023-03-15T03:34:32;6.50;99.90
25346;DHT22;13300;51.032;3.710;2023-03-15T03:36:58;6.40;99.90
25346;DHT22;13300;51.032;3.710;2023-03-15T03:39:23;6.30;99.90
25346;DHT22;13300;51.032;3.710;2023-03-15T03:41:49;6.30;99.90
25346;DHT22;13300;51.032;3.710;2023-03-15T03:44:15;6.20;99.90
25346;DHT22;13300;51.032;3.710;2023-03-15T03:46:41;6.10;99.90
25346;DHT22;13300;51.032;3.710;2023-03-15T03:49:07;6.00;99.90
25346;DHT22;13300;51.032;3.710;2023-03-15T03:51:32;6.00;99.90
25346;DHT22;13300;51.032;3.710;2023-03-15T03:54:00;5.90;99.90
25346;DHT22;13300;51.032;3.710;2023-03-15T03:56:25;5.80;99.90
25346;DHT22;13300;51.032;3.710;2023-03-15T03:58:52;5.70;99.90
25346;DHT22;13300;51.032;3.710;2023-03-15T04:01:17;5.60;99.90
25346;DHT22;13300;51.032;3.710;2023-03-15T04:03:43;5.60;99.90
25346;DHT22;13300;51.032;3.710;2023-03-15T04:06:09;5.50;99.90
25346;DHT22;13300;51.032;3.710;2023-03-15T04:08:35;5.40;99.90
25346;DHT22;13300;51.032;3.710;2023-03-15T04:11:01;5.40;99.90
25346;DHT22;13300;51.032;3.710;2023-03-15T04:13:29;5.40;99.90
25346;DHT22;13300;51.032;3.710;2023-03-15T04:15:56;5.30;99.90
25346;DHT22;13300;51.032;3.710;2023-03-15T04:18:22;5.30;99.90
25346;DHT22;13300;51.032;3.710;2023-03-15T04:20:48;5.30;99.90
25346;DHT22;13300;51.032;3.710;2023-03-15T04:23:14;5.20;99.90
25346;DHT22;13300;51.032;3.710;2023-03-15T04:25:41;5.20;99.90
25346;DHT22;13300;51.032;3.710;2023-03-15T04:28:08;5.20;99.90
25346;DHT22;13300;51.032;3.710;2023-03-15T04:30:36;5.20;99.90
25346;DHT22;13300;51.032;3.710;2023-03-15T04:33:02;5.20;99.90
25346;DHT22;13300;51.032;3.710;2023-03-15T04:35:31;5.10;99.90
25346;DHT22;13300;51.032;3.710;2023-03-15T04:37:57;5.10;99.90
25346;DHT22;13300;51.032;3.710;2023-03-15T04:40:24;5.00;99.90
25346;DHT22;13300;51.032;3.710;2023-03-15T04:42:50;4.90;99.90
25346;DHT22;13300;51.032;3.710;2023-03-15T04:45:17;4.90;99.90
25346;DHT22;13300;51.032;3.710;2023-03-15T04:47:43;4.80;99.90
25346;DHT22;13300;51.032;3.710;2023-03-15T04:50:09;4.70;99.90
25346;DHT22;13300;51.032;3.710;2023-03-15T04:52:35;4.70;99.90
25346;DHT22;13300;51.032;3.710;2023-03-15T04:55:00;4.70;99.90
25346;DHT22;13300;51.032;3.710;2023-03-15T04:57:26;4.70;99.90
25346;DHT22;13300;51.032;3.710;2023-03-15T04:59:52;4.70;99.90
25346;DHT22;13300;51.032;3.710;2023-03-15T05:02:17;4.70;99.90
25346;DHT22;13300;51.032;3.710;2023-03-15T05:04:43;4.60;99.90
25346;DHT22;13300;51.032;3.710;2023-03-15T05:07:09;4.60;99.90
25346;DHT22;13300;51.032;3.710;2023-03-15T05:09:35;4.60;99.90
25346;DHT22;13300;51.032;3.710;2023-03-15T05:12:06;4.60;99.90
25346;DHT22;13300;51.032;3.710;2023-03-15T05:14:32;4.60;99.90
25346;DHT22;13300;51.032;3.710;2023-03-15T05:16:58;4.60;99.90
25346;DHT22;13300;51.032;3.710;2023-03-15T05:19:26;4.60;99.90
25346;DHT22;13300;51.032;3.710;2023-03-15T05:21:52;4.50;99.90
25346;DHT22;13300;51.032;3.710;2023-03-15T05:24:19;4.50;99.90
25346;DHT22;13300;51.032;3.710;2023-03-15T05:26:45;4.50;99.90
25346;DHT22;13300;51.032;3.710;2023-03-15T05:29:14;4.50;99.90
25346;DHT22;13300;51.032;3.710;2023-03-15T05:31:40;4.50;99.90
25346;DHT22;13300;51.032;3.710;2023-03-15T05:34:06;4.50;99.90
25346;DHT22;13300;51.032;3.710;2023-03-15T05:36:33;4.50;99.90
25346;DHT22;13300;51.032;3.710;2023-03-15T05:38:59;4.40;99.90
25346;DHT22;13300;51.032;3.710;2023-03-15T05:41:27;4.40;99.90
25346;DHT22;13300;51.032;3.710;2023-03-15T05:43:53;4.30;99.90
25346;DHT22;13300;51.032;3.710;2023-03-15T05:46:19;4.30;99.90
25346;DHT22;13300;51.032;3.710;2023-03-15T05:48:47;4.30;99.90
25346;DHT22;13300;51.032;3.710;2023-03-15T05:51:13;4.20;99.90
25346;DHT22;13300;51.032;3.710;2023-03-15T05:53:39;4.20;99.90
25346;DHT22;13300;51.032;3.710;2023-03-15T05:56:05;4.30;99.90
25346;DHT22;13300;51.032;3.710;2023-03-15T05:58:31;4.20;99.90
25346;DHT22;13300;51.032;3.710;2023-03-15T06:00:57;4.20;99.90
25346;DHT22;13300;51.032;3.710;2023-03-15T06:03:23;4.30;99.90
25346;DHT22;13300;51.032;3.710;2023-03-15T06:05:48;4.30;99.90
25346;DHT22;13300;51.032;3.710;2023-03-15T06:08:14;4.30;99.90
25346;DHT22;13300;51.032;3.710;2023-03-15T06:10:40;4.30;99.90
25346;DHT22;13300;51.032;3.710;2023-03-15T06:13:06;4.30;99.90
25346;DHT22;13300;51.032;3.710;2023-03-15T06:15:32;4.30;99.90
25346;DHT22;13300;51.032;3.710;2023-03-15T06:18:17;4.30;99.90
25346;DHT22;13300;51.032;3.710;2023-03-15T06:20:43;4.30;99.90
25346;DHT22;13300;51.032;3.710;2023-03-15T06:23:09;4.40;99.90
25346;DHT22;13300;51.032;3.710;2023-03-15T06:25:35;4.40;99.90
25346;DHT22;13300;51.032;3.710;2023-03-15T06:28:01;4.40;99.90
25346;DHT22;13300;51.032;3.710;2023-03-15T06:30:27;4.50;99.90
25346;DHT22;13300;51.032;3.710;2023-03-15T06:32:53;4.70;99.90
25346;DHT22;13300;51.032;3.710;2023-03-15T06:35:19;5.00;99.90
25346;DHT22;13300;51.032;3.710;2023-03-15T06:37:46;5.40;99.90
25346;DHT22;13300;51.032;3.710;2023-03-15T06:40:12;5.90;99.90
25346;DHT22;13300;51.032;3.710;2023-03-15T06:42:40;6.30;99.90
25346;DHT22;13300;51.032;3.710;2023-03-15T06:45:08;6.80;99.90
25346;DHT22;13300;51.032;3.710;2023-03-15T06:47:34;7.50;99.90
25346;DHT22;13300;51.032;3.710;2023-03-15T06:50:00;8.00;99.90
25346;DHT22;13300;51.032;3.710;2023-03-15T06:52:25;8.70;99.90
25346;DHT22;13300;51.032;3.710;2023-03-15T06:54:51;9.30;99.90
25346;DHT22;13300;51.032;3.710;2023-03-15T06:57:17;10.10;99.90
25346;DHT22;13300;51.032;3.710;2023-03-15T06:59:43;10.60;99.90
25346;DHT22;13300;51.032;3.710;2023-03-15T07:02:13;11.10;99.90
25346;DHT22;13300;51.032;3.710;2023-03-15T07:04:39;11.50;99.90
25346;DHT22;13300;51.032;3.710;2023-03-15T07:07:05;11.90;99.90
25346;DHT22;13300;51.032;3.710;2023-03-15T07:09:31;12.40;99.90
25346;DHT22;13300;51.032;3.710;2023-03-15T07:11:57;12.80;99.90
25346;DHT22;13300;51.032;3.710;2023-03-15T07:14:23;12.90;99.90
25346;DHT22;13300;51.032;3.710;2023-03-15T07:16:48;13.20;99.90
25346;DHT22;13300;51.032;3.710;2023-03-15T07:19:15;13.50;99.90
25346;DHT22;13300;51.032;3.710;2023-03-15T07:21:40;13.80;99.90
25346;DHT22;13300;51.032;3.710;2023-03-15T07:24:06;14.20;99.90
25346;DHT22;13300;51.032;3.710;2023-03-15T07:26:32;14.30;99.90
25346;DHT22;13300;51.032;3.710;2023-03-15T07:28:58;14.70;99.90
25346;DHT22;13300;51.032;3.710;2023-03-15T07:31:24;15.20;99.90
25346;DHT22;13300;51.032;3.710;2023-03-15T07:33:49;15.60;99.90
25346;DHT22;13300;51.032;3.710;2023-03-15T07:36:15;15.70;99.90
25346;DHT22;13300;51.032;3.710;2023-03-15T07:38:41;15.00;99.90
25346;DHT22;13300;51.032;3.710;2023-03-15T07:41:07;14.10;99.90
25346;DHT22;13300;51.032;3.710;2023-03-15T07:43:33;13.90;99.90
25346;DHT22;13300;51.032;3.710;2023-03-15T07:45:59;13.60;99.90
25346;DHT22;13300;51.032;3.710;2023-03-15T07:48:28;13.60;99.90
25346;DHT22;13300;51.032;3.710;2023-03-15T07:50:55;13.80;99.90
25346;DHT22;13300;51.032;3.710;2023-03-15T07:53:22;14.40;99.90
25346;DHT22;13300;51.032;3.710;2023-03-15T07:55:48;14.00;99.90
25346;DHT22;13300;51.032;3.710;2023-03-15T07:58:14;13.20;99.90
25346;DHT22;13300;51.032;3.710;2023-03-15T08:00:40;12.20;99.90
25346;DHT22;13300;51.032;3.710;2023-03-15T08:03:06;11.60;99.90
25346;DHT22;13300;51.032;3.710;2023-03-15T08:05:33;11.40;99.90
25346;DHT22;13300;51.032;3.710;2023-03-15T08:07:59;11.20;99.90
25346;DHT22;13300;51.032;3.710;2023-03-15T08:10:25;11.00;99.90
25346;DHT22;13300;51.032;3.710;2023-03-15T08:12:52;11.20;99.90
25346;DHT22;13300;51.032;3.710;2023-03-15T08:15:18;11.90;99.90
25346;DHT22;13300;51.032;3.710;2023-03-15T08:17:56;12.80;99.90
25346;DHT22;13300;51.032;3.710;2023-03-15T08:23:56;15.00;99.90
25346;DHT22;13300;51.032;3.710;2023-03-15T08:29:46;16.90;99.90
25346;DHT22;13300;51.032;3.710;2023-03-15T08:32:12;17.40;99.90
25346;DHT22;13300;51.032;3.710;2023-03-15T08:34:41;17.70;99.90
25346;DHT22;13300;51.032;3.710;2023-03-15T08:37:09;17.90;99.90
25346;DHT22;13300;51.032;3.710;2023-03-15T08:39:38;18.30;99.90
25346;DHT22;13300;51.032;3.710;2023-03-15T08:42:05;18.60;99.90
25346;DHT22;13300;51.032;3.710;2023-03-15T08:44:32;18.80;99.60
25346;DHT22;13300;51.032;3.710;2023-03-15T08:46:59;18.80;99.10
25346;DHT22;13300;51.032;3.710;2023-03-15T08:49:35;18.90;99.00
25346;DHT22;13300;51.032;3.710;2023-03-15T09:29:21;19.00;93.70
25346;DHT22;13300;51.032;3.710;2023-03-15T16:02:20;11.50;94.30
25346;DHT22;13300;51.032;3.710;2023-03-15T16:15:19;11.30;95.20
25346;DHT22;13300;51.032;3.710;2023-03-15T16:17:57;11.40;95.10
25346;DHT22;13300;51.032;3.710;2023-03-15T16:23:53;11.00;95.80
25346;DHT22;13300;51.032;3.710;2023-03-15T16:26:23;10.80;95.50
25346;DHT22;13300;51.032;3.710;2023-03-15T16:28:50;10.70;95.20
25346;DHT22;13300;51.032;3.710;2023-03-15T16:31:19;10.50;95.40
25346;DHT22;13300;51.032;3.710;2023-03-15T16:33:49;10.60;96.10
25346;DHT22;13300;51.032;3.710;2023-03-15T16:36:20;10.60;96.20
25346;DHT22;13300;51.032;3.710;2023-03-15T16:38:46;10.70;96.70
25346;DHT22;13300;51.032;3.710;2023-03-15T16:41:15;10.70;96.60
25346;DHT22;13300;51.032;3.710;2023-03-15T16:43:42;10.90;96.40
25346;DHT22;13300;51.032;3.710;2023-03-15T16:46:14;11.10;96.20
25346;DHT22;13300;51.032;3.710;2023-03-15T16:48:40;11.20;95.80
25346;DHT22;13300;51.032;3.710;2023-03-15T16:51:07;11.30;96.20
25346;DHT22;13300;51.032;3.710;2023-03-15T16:53:34;11.10;96.00
25346;DHT22;13300;51.032;3.710;2023-03-15T16:59:30;10.90;96.60
25346;DHT22;13300;51.032;3.710;2023-03-15T17:01:56;10.90;96.60
25346;DHT22;13300;51.032;3.710;2023-03-15T17:04:26;10.80;97.40
25346;DHT22;13300;51.032;3.710;2023-03-15T17:06:58;10.60;97.50
25346;DHT22;13300;51.032;3.710;2023-03-15T17:09:41;10.60;97.40
25346;DHT22;13300;51.032;3.710;2023-03-15T17:19:27;10.30;98.50
25346;DHT22;13300;51.032;3.710;2023-03-15T17:39:20;9.80;99.90
25346;DHT22;13300;51.032;3.710;2023-03-15T17:45:19;9.90;99.90
25346;DHT22;13300;51.032;3.710;2023-03-15T18:19:22;9.60;99.90
25346;DHT22;13300;51.032;3.710;2023-03-15T18:21:54;9.50;99.90
25346;DHT22;13300;51.032;3.710;2023-03-15T18:24:20;9.60;99.90
25346;DHT22;13300;51.032;3.710;2023-03-15T18:26:49;9.80;99.90
25346;DHT22;13300;51.032;3.710;2023-03-15T18:29:17;9.80;99.90
25346;DHT22;13300;51.032;3.710;2023-03-15T18:31:43;9.90;99.90
25346;DHT22;13300;51.032;3.710;2023-03-15T18:34:13;9.80;99.90
25346;DHT22;13300;51.032;3.710;2023-03-15T18:36:47;9.80;99.90
25346;DHT22;13300;51.032;3.710;2023-03-15T18:39:13;9.70;99.90
25346;DHT22;13300;51.032;3.710;2023-03-15T18:41:39;9.80;99.90
25346;DHT22;13300;51.032;3.710;2023-03-15T18:44:05;9.80;99.90
25346;DHT22;13300;51.032;3.710;2023-03-15T18:46:31;9.80;99.90
25346;DHT22;13300;51.032;3.710;2023-03-15T18:49:15;9.70;99.90
25346;DHT22;13300;51.032;3.710;2023-03-15T18:58:44;9.30;99.90
25346;DHT22;13300;51.032;3.710;2023-03-15T19:01:59;9.40;99.90
25346;DHT22;13300;51.032;3.710;2023-03-15T19:04:27;9.40;99.90
25346;DHT22;13300;51.032;3.710;2023-03-15T19:06:54;9.20;99.90
25346;DHT22;13300;51.032;3.710;2023-03-15T19:09:22;9.20;99.90
25346;DHT22;13300;51.032;3.710;2023-03-15T19:11:52;9.30;99.90
25346;DHT22;13300;51.032;3.710;2023-03-15T19:14:18;9.30;99.90
25346;DHT22;13300;51.032;3.710;2023-03-15T19:16:44;9.20;99.90
25346;DHT22;13300;51.032;3.710;2023-03-15T19:19:10;9.20;99.90
25346;DHT22;13300;51.032;3.710;2023-03-15T19:21:36;9.10;99.90
25346;DHT22;13300;51.032;3.710;2023-03-15T19:24:04;9.00;99.90
25346;DHT22;13300;51.032;3.710;2023-03-15T19:34:36;9.10;99.90
25346;DHT22;13300;51.032;3.710;2023-03-15T19:40:45;9.00;99.90
25346;DHT22;13300;51.032;3.710;2023-03-15T19:47:17;8.60;99.90
25346;DHT22;13300;51.032;3.710;2023-03-15T19:52:48;8.60;99.90
25346;DHT22;13300;51.032;3.710;2023-03-15T19:59:14;8.40;99.90
25346;DHT22;13300;51.032;3.710;2023-03-15T20:15:48;8.30;99.90
25346;DHT22;13300;51.032;3.710;2023-03-15T20:18:31;8.40;99.90
25346;DHT22;13300;51.032;3.710;2023-03-15T20:21:27;8.50;99.90
25346;DHT22;13300;51.032;3.710;2023-03-15T20:34:18;8.40;99.90
25346;DHT22;13300;51.032;3.710;2023-03-15T20:43:47;8.50;99.90
25346;DHT22;13300;51.032;3.710;2023-03-15T20:50:03;8.50;99.90
25346;DHT22;13300;51.032;3.710;2023-03-15T20:56:01;8.30;99.90
25346;DHT22;13300;51.032;3.710;2023-03-15T21:02:11;8.30;99.90
25346;DHT22;13300;51.032;3.710;2023-03-15T21:07:47;8.30;99.90
25346;DHT22;13300;51.032;3.710;2023-03-15T21:17:12;8.40;99.90
25346;DHT22;13300;51.032;3.710;2023-03-15T21:23:28;8.30;99.90
25346;DHT22;13300;51.032;3.710;2023-03-15T21:26:36;8.40;99.90
25346;DHT22;13300;51.032;3.710;2023-03-15T21:47:20;8.20;99.90
25346;DHT22;13300;51.032;3.710;2023-03-15T21:54:03;8.10;99.90
25346;DHT22;13300;51.032;3.710;2023-03-15T21:56:51;8.10;99.90
25346;DHT22;13300;51.032;3.710;2023-03-15T22:02:22;8.10;99.90
25346;DHT22;13300;51.032;3.710;2023-03-15T23:15:50;8.00;99.90
